Little Sugar Creek (Missouri), Pineville (07188838)

StateMissouriCurrentPotential (323 cfs)
RiverLittle Sugar CreekFlood - The river is flooding. Obstacles can be treacherous or deadly. The river should be avoided at this stage for casual trips and definitely for the inexperienced. Trips should be attempted only with protective gear and equipment.Flood(none)
Updated2019-12-13 19:15 (1 hour ago)High - The river is high and potentially dangerous, especially for the young and / or inexperienced. Normal stream obstacles are sometimes difficult to navigate. Extended distances can be attempted, but canoe travel may not be advisable.High(none)
Discharge323 cfs (median: 74 cfs)Good - Conditions are ideal for a canoe or kayak. Boats typically will drag on fewer than one-quarter of riffles, if at all, and portages are unnecessary or rare. Normal float lengths can be attempted without a problem.Good(none)
Height3.56 feetLow - River is low but can still be floated. Some riffles are okay but most come with significant dragging and might need a portage. Float lengths should be reduced to accommodate low flow, dragging, and portages.Low(none)
TrendSteady (falling over 24 hours)Poor - River is too low to float comfortably. Most or all riffles will drag or must be portaged and some obstacles (such as slick shelf rock) cause undue problems. Avoid the river at this stage for casual paddling trips.Poor(none)
USGSExternal icon USGS Site for Pineville (07188838)LocationExternal icon Google Maps

Trending Data

Plot Image
ObservationHeightDischargeMaximum
Discharge
Minimum
Discharge
Mean
Discharge
P05P10P20P25P50
(Median)
P75P80P90P95
2019-12-13 19:15 3.56 323 887 (2016) 30 (2006) 182 33 37 47 74 175 327 741
2019-12-13 18:15 3.56 323 887 (2016) 30 (2006) 182 33 37 47 74 175 327 741
2019-12-13 17:15 3.56 323 887 (2016) 30 (2006) 182 33 37 47 74 175 327 741
2019-12-13 16:15 3.56 323 887 (2016) 30 (2006) 182 33 37 47 74 175 327 741
2019-12-13 15:15 3.57 326 887 (2016) 30 (2006) 182 33 37 47 74 175 327 741
2019-12-13 14:15 3.57 326 887 (2016) 30 (2006) 182 33 37 47 74 175 327 741
2019-12-13 13:15 3.57 326 887 (2016) 30 (2006) 182 33 37 47 74 175 327 741
2019-12-13 12:15 3.57 326 887 (2016) 30 (2006) 182 33 37 47 74 175 327 741
2019-12-12 21:15 3.59 332 754 (2008) 30 (2006) 145 34 42 51 75 123 150 567
2019-12-12 20:15 3.59 332 754 (2008) 30 (2006) 145 34 42 51 75 123 150 567
2019-12-12 19:15 3.58 329 754 (2008) 30 (2006) 145 34 42 51 75 123 150 567
2019-12-12 18:15 3.59 332 754 (2008) 30 (2006) 145 34 42 51 75 123 150 567
2019-12-12 17:15 3.59 332 754 (2008) 30 (2006) 145 34 42 51 75 123 150 567
2019-12-12 16:15 3.59 332 754 (2008) 30 (2006) 145 34 42 51 75 123 150 567
2019-12-12 15:15 3.60 335 754 (2008) 30 (2006) 145 34 42 51 75 123 150 567
2019-12-12 14:15 3.58 329 754 (2008) 30 (2006) 145 34 42 51 75 123 150 567
2019-12-12 13:15 3.60 335 754 (2008) 30 (2006) 145 34 42 51 75 123 150 567
2019-12-12 12:15 3.59 332 754 (2008) 30 (2006) 145 34 42 51 75 123 150 567
2019-12-12 11:15 3.60 335 754 (2008) 30 (2006) 145 34 42 51 75 123 150 567
2019-12-12 10:15 3.60 335 754 (2008) 30 (2006) 145 34 42 51 75 123 150 567
2019-12-12 09:15 3.60 335 754 (2008) 30 (2006) 145 34 42 51 75 123 150 567
2019-12-12 08:15 3.60 335 754 (2008) 30 (2006) 145 34 42 51 75 123 150 567
2019-12-12 07:15 3.61 338 754 (2008) 30 (2006) 145 34 42 51 75 123 150 567
2019-12-12 06:15 3.60 335 754 (2008) 30 (2006) 145 34 42 51 75 123 150 567
2019-12-12 05:15 3.61 338 754 (2008) 30 (2006) 145 34 42 51 75 123 150 567
2019-12-12 04:15 3.61 338 754 (2008) 30 (2006) 145 34 42 51 75 123 150 567
2019-12-12 03:15 3.61 338 754 (2008) 30 (2006) 145 34 42 51 75 123 150 567
2019-12-12 02:15 3.62 341 754 (2008) 30 (2006) 145 34 42 51 75 123 150 567
2019-12-12 01:15 3.62 341 754 (2008) 30 (2006) 145 34 42 51 75 123 150 567
2019-12-12 00:15 3.62 341 754 (2008) 30 (2006) 145 34 42 51 75 123 150 567
2019-12-11 23:15 3.62 341 794 (2008) 30 (2006) 154 33 44 54 77 127 152 617
2019-12-11 22:15 3.62 341 794 (2008) 30 (2006) 154 33 44 54 77 127 152 617
2019-12-11 21:15 3.63 344 794 (2008) 30 (2006) 154 33 44 54 77 127 152 617
2019-12-11 20:15 3.63 344 794 (2008) 30 (2006) 154 33 44 54 77 127 152 617
2019-12-11 19:15 3.63 344 794 (2008) 30 (2006) 154 33 44 54 77 127 152 617
2019-12-11 18:15 3.62 341 794 (2008) 30 (2006) 154 33 44 54 77 127 152 617
2019-12-11 17:15 3.63 344 794 (2008) 30 (2006) 154 33 44 54 77 127 152 617
2019-12-11 16:15 3.63 344 794 (2008) 30 (2006) 154 33 44 54 77 127 152 617
2019-12-11 15:15 3.64 348 794 (2008) 30 (2006) 154 33 44 54 77 127 152 617
2019-12-11 14:15 3.64 348 794 (2008) 30 (2006) 154 33 44 54 77 127 152 617
2019-12-11 13:15 3.64 348 794 (2008) 30 (2006) 154 33 44 54 77 127 152 617
2019-12-11 12:15 3.64 348 794 (2008) 30 (2006) 154 33 44 54 77 127 152 617
2019-12-11 11:15 3.65 351 794 (2008) 30 (2006) 154 33 44 54 77 127 152 617
2019-12-11 10:15 3.65 351 794 (2008) 30 (2006) 154 33 44 54 77 127 152 617
2019-12-11 09:15 3.64 348 794 (2008) 30 (2006) 154 33 44 54 77 127 152 617
2019-12-11 08:15 3.65 351 794 (2008) 30 (2006) 154 33 44 54 77 127 152 617
2019-12-11 07:15 3.65 351 794 (2008) 30 (2006) 154 33 44 54 77 127 152 617
2019-12-11 06:15 3.65 351 794 (2008) 30 (2006) 154 33 44 54 77 127 152 617
2019-12-11 05:15 3.65 351 794 (2008) 30 (2006) 154 33 44 54 77 127 152 617
2019-12-11 04:15 3.66 354 794 (2008) 30 (2006) 154 33 44 54 77 127 152 617
2019-12-11 03:15 3.66 354 794 (2008) 30 (2006) 154 33 44 54 77 127 152 617
2019-12-11 02:15 3.66 354 794 (2008) 30 (2006) 154 33 44 54 77 127 152 617
2019-12-11 01:15 3.66 354 794 (2008) 30 (2006) 154 33 44 54 77 127 152 617
2019-12-11 00:15 3.66 354 794 (2008) 30 (2006) 154 33 44 54 77 127 152 617
2019-12-10 23:15 3.66 354 513 (2005) 29 (2006) 125 33 46 58 82 136 158 376
2019-12-10 22:15 3.67 357 513 (2005) 29 (2006) 125 33 46 58 82 136 158 376
2019-12-10 21:15 3.67 357 513 (2005) 29 (2006) 125 33 46 58 82 136 158 376
2019-12-10 20:15 3.67 357 513 (2005) 29 (2006) 125 33 46 58 82 136 158 376
2019-12-10 19:15 3.68 360 513 (2005) 29 (2006) 125 33 46 58 82 136 158 376
2019-12-10 18:15 3.69 364 513 (2005) 29 (2006) 125 33 46 58 82 136 158 376
2019-12-10 17:15 3.69 364 513 (2005) 29 (2006) 125 33 46 58 82 136 158 376
2019-12-10 16:15 3.69 364 513 (2005) 29 (2006) 125 33 46 58 82 136 158 376
2019-12-10 15:15 3.69 364 513 (2005) 29 (2006) 125 33 46 58 82 136 158 376
2019-12-10 14:15 3.70 367 513 (2005) 29 (2006) 125 33 46 58 82 136 158 376
2019-12-10 13:15 3.70 367 513 (2005) 29 (2006) 125 33 46 58 82 136 158 376
2019-12-10 12:15 3.70 367 513 (2005) 29 (2006) 125 33 46 58 82 136 158 376
2019-12-10 11:15 3.70 367 513 (2005) 29 (2006) 125 33 46 58 82 136 158 376
2019-12-10 10:15 3.71 370 513 (2005) 29 (2006) 125 33 46 58 82 136 158 376
2019-12-10 09:15 3.71 370 513 (2005) 29 (2006) 125 33 46 58 82 136 158 376
2019-12-10 08:15 3.71 370 513 (2005) 29 (2006) 125 33 46 58 82 136 158 376
2019-12-10 07:15 3.72 373 513 (2005) 29 (2006) 125 33 46 58 82 136 158 376
2019-12-10 06:15 3.72 373 513 (2005) 29 (2006) 125 33 46 58 82 136 158 376
2019-12-10 05:15 3.72 373 513 (2005) 29 (2006) 125 33 46 58 82 136 158 376
2019-12-10 04:15 3.72 373 513 (2005) 29 (2006) 125 33 46 58 82 136 158 376
2019-12-10 03:15 3.73 377 513 (2005) 29 (2006) 125 33 46 58 82 136 158 376
2019-12-10 02:15 3.73 377 513 (2005) 29 (2006) 125 33 46 58 82 136 158 376
2019-12-10 01:15 3.73 377 513 (2005) 29 (2006) 125 33 46 58 82 136 158 376
2019-12-10 00:15 3.73 377 513 (2005) 29 (2006) 125 33 46 58 82 136 158 376
2019-12-09 23:15 3.74 380 622 (2005) 29 (2006) 123 33 39 46 75 140 142 396
2019-12-09 22:15 3.74 380 622 (2005) 29 (2006) 123 33 39 46 75 140 142 396
2019-12-09 21:15 3.73 377 622 (2005) 29 (2006) 123 33 39 46 75 140 142 396
2019-12-09 20:15 3.75 383 622 (2005) 29 (2006) 123 33 39 46 75 140 142 396
2019-12-09 19:15 3.75 383 622 (2005) 29 (2006) 123 33 39 46 75 140 142 396
2019-12-09 18:15 3.75 383 622 (2005) 29 (2006) 123 33 39 46 75 140 142 396
2019-12-09 17:15 3.75 383 622 (2005) 29 (2006) 123 33 39 46 75 140 142 396
2019-12-09 16:15 3.76 387 622 (2005) 29 (2006) 123 33 39 46 75 140 142 396
2019-12-09 15:15 3.75 383 622 (2005) 29 (2006) 123 33 39 46 75 140 142 396
2019-12-09 14:15 3.75 383 622 (2005) 29 (2006) 123 33 39 46 75 140 142 396
2019-12-09 13:15 3.76 387 622 (2005) 29 (2006) 123 33 39 46 75 140 142 396
2019-12-09 12:15 3.76 387 622 (2005) 29 (2006) 123 33 39 46 75 140 142 396
2019-12-09 11:15 3.76 387 622 (2005) 29 (2006) 123 33 39 46 75 140 142 396
2019-12-09 10:15 3.77 390 622 (2005) 29 (2006) 123 33 39 46 75 140 142 396
2019-12-09 09:15 3.77 390 622 (2005) 29 (2006) 123 33 39 46 75 140 142 396
2019-12-09 08:15 3.77 390 622 (2005) 29 (2006) 123 33 39 46 75 140 142 396
2019-12-09 07:15 3.77 390 622 (2005) 29 (2006) 123 33 39 46 75 140 142 396
2019-12-09 06:15 3.78 394 622 (2005) 29 (2006) 123 33 39 46 75 140 142 396
2019-12-09 05:15 3.78 394 622 (2005) 29 (2006) 123 33 39 46 75 140 142 396
2019-12-09 04:15 3.78 394 622 (2005) 29 (2006) 123 33 39 46 75 140 142 396
2019-12-09 03:15 3.78 394 622 (2005) 29 (2006) 123 33 39 46 75 140 142 396
2019-12-09 02:15 3.78 394 622 (2005) 29 (2006) 123 33 39 46 75 140 142 396
2019-12-09 01:15 3.79 397 622 (2005) 29 (2006) 123 33 39 46 75 140 142 396
2019-12-09 00:15 3.79 397 622 (2005) 29 (2006) 123 33 39 46 75 140 142 396
2019-12-08 23:15 3.79 397 793 (2005) 27 (2006) 136 31 38 48 79 149 151 487
2019-12-08 22:15 3.79 397 793 (2005) 27 (2006) 136 31 38 48 79 149 151 487
2019-12-08 21:15 3.79 397 793 (2005) 27 (2006) 136 31 38 48 79 149 151 487
2019-12-08 20:15 3.80 400 793 (2005) 27 (2006) 136 31 38 48 79 149 151 487
2019-12-08 19:15 3.80 400 793 (2005) 27 (2006) 136 31 38 48 79 149 151 487
2019-12-08 18:15 3.80 400 793 (2005) 27 (2006) 136 31 38 48 79 149 151 487
2019-12-08 17:15 3.81 404 793 (2005) 27 (2006) 136 31 38 48 79 149 151 487
2019-12-08 16:15 3.81 404 793 (2005) 27 (2006) 136 31 38 48 79 149 151 487
2019-12-08 15:15 3.80 400 793 (2005) 27 (2006) 136 31 38 48 79 149 151 487
2019-12-08 14:15 3.80 400 793 (2005) 27 (2006) 136 31 38 48 79 149 151 487
2019-12-08 13:15 3.81 404 793 (2005) 27 (2006) 136 31 38 48 79 149 151 487
2019-12-08 12:15 3.81 404 793 (2005) 27 (2006) 136 31 38 48 79 149 151 487
2019-12-08 11:15 3.81 404 793 (2005) 27 (2006) 136 31 38 48 79 149 151 487
2019-12-08 10:15 3.82 407 793 (2005) 27 (2006) 136 31 38 48 79 149 151 487
2019-12-08 09:15 3.82 407 793 (2005) 27 (2006) 136 31 38 48 79 149 151 487
2019-12-08 08:15 3.83 411 793 (2005) 27 (2006) 136 31 38 48 79 149 151 487
2019-12-08 07:15 3.83 411 793 (2005) 27 (2006) 136 31 38 48 79 149 151 487
2019-12-08 06:15 3.83 411 793 (2005) 27 (2006) 136 31 38 48 79 149 151 487
2019-12-08 05:15 3.84 414 793 (2005) 27 (2006) 136 31 38 48 79 149 151 487
2019-12-08 04:15 3.84 414 793 (2005) 27 (2006) 136 31 38 48 79 149 151 487
2019-12-08 03:15 3.84 414 793 (2005) 27 (2006) 136 31 38 48 79 149 151 487
2019-12-08 02:15 3.84 414 793 (2005) 27 (2006) 136 31 38 48 79 149 151 487
2019-12-08 01:15 3.84 414 793 (2005) 27 (2006) 136 31 38 48 79 149 151 487
2019-12-08 00:15 3.85 418 793 (2005) 27 (2006) 136 31 38 48 79 149 151 487
2019-12-07 23:15 3.85 418 788 (2005) 26 (2006) 135 30 39 52 72 158 167 491
2019-12-07 22:15 3.85 418 788 (2005) 26 (2006) 135 30 39 52 72 158 167 491
2019-12-07 21:15 3.86 422 788 (2005) 26 (2006) 135 30 39 52 72 158 167 491
2019-12-07 20:15 3.87 425 788 (2005) 26 (2006) 135 30 39 52 72 158 167 491
2019-12-07 19:15 3.87 425 788 (2005) 26 (2006) 135 30 39 52 72 158 167 491
2019-12-07 18:15 3.87 425 788 (2005) 26 (2006) 135 30 39 52 72 158 167 491
2019-12-07 17:15 3.88 429 788 (2005) 26 (2006) 135 30 39 52 72 158 167 491
2019-12-07 16:15 3.88 429 788 (2005) 26 (2006) 135 30 39 52 72 158 167 491
2019-12-07 15:15 3.88 429 788 (2005) 26 (2006) 135 30 39 52 72 158 167 491
2019-12-07 14:15 3.88 429 788 (2005) 26 (2006) 135 30 39 52 72 158 167 491
2019-12-07 13:15 3.88 429 788 (2005) 26 (2006) 135 30 39 52 72 158 167 491
2019-12-07 12:15 3.88 429 788 (2005) 26 (2006) 135 30 39 52 72 158 167 491
2019-12-07 11:15 3.89 432 788 (2005) 26 (2006) 135 30 39 52 72 158 167 491
2019-12-07 10:15 3.89 432 788 (2005) 26 (2006) 135 30 39 52 72 158 167 491
2019-12-07 09:15 3.90 436 788 (2005) 26 (2006) 135 30 39 52 72 158 167 491
2019-12-07 08:15 3.90 436 788 (2005) 26 (2006) 135 30 39 52 72 158 167 491
2019-12-07 07:15 3.90 436 788 (2005) 26 (2006) 135 30 39 52 72 158 167 491
2019-12-07 06:15 3.90 436 788 (2005) 26 (2006) 135 30 39 52 72 158 167 491
2019-12-07 05:15 3.91 440 788 (2005) 26 (2006) 135 30 39 52 72 158 167 491
2019-12-07 04:15 3.91 440 788 (2005) 26 (2006) 135 30 39 52 72 158 167 491
2019-12-07 03:15 3.91 440 788 (2005) 26 (2006) 135 30 39 52 72 158 167 491
2019-12-07 02:15 3.92 443 788 (2005) 26 (2006) 135 30 39 52 72 158 167 491
2019-12-07 01:15 3.92 443 788 (2005) 26 (2006) 135 30 39 52 72 158 167 491
2019-12-07 00:15 3.93 447 788 (2005) 26 (2006) 135 30 39 52 72 158 167 491
2019-12-06 23:15 3.93 447 404 (2005) 27 (2006) 114 31 40 57 72 167 182 309
2019-12-06 22:15 3.94 451 404 (2005) 27 (2006) 114 31 40 57 72 167 182 309
2019-12-06 21:15 3.94 451 404 (2005) 27 (2006) 114 31 40 57 72 167 182 309
2019-12-06 20:15 3.94 451 404 (2005) 27 (2006) 114 31 40 57 72 167 182 309
2019-12-06 19:15 3.95 455 404 (2005) 27 (2006) 114 31 40 57 72 167 182 309
2019-12-06 18:15 3.95 455 404 (2005) 27 (2006) 114 31 40 57 72 167 182 309
2019-12-06 17:15 3.96 458 404 (2005) 27 (2006) 114 31 40 57 72 167 182 309
2019-12-06 16:15 3.97 462 404 (2005) 27 (2006) 114 31 40 57 72 167 182 309
2019-12-06 15:15 3.97 462 404 (2005) 27 (2006) 114 31 40 57 72 167 182 309
2019-12-06 14:15 3.97 462 404 (2005) 27 (2006) 114 31 40 57 72 167 182 309
2019-12-06 13:15 3.98 466 404 (2005) 27 (2006) 114 31 40 57 72 167 182 309
2019-12-06 12:15 3.98 466 404 (2005) 27 (2006) 114 31 40 57 72 167 182 309
2019-12-06 11:15 3.99 470 404 (2005) 27 (2006) 114 31 40 57 72 167 182 309
2019-12-06 10:15 3.99 470 404 (2005) 27 (2006) 114 31 40 57 72 167 182 309
2019-12-06 09:15 3.99 470 404 (2005) 27 (2006) 114 31 40 57 72 167 182 309
2019-12-06 08:15 4.00 474 404 (2005) 27 (2006) 114 31 40 57 72 167 182 309
2019-12-06 07:15 4.00 474 404 (2005) 27 (2006) 114 31 40 57 72 167 182 309
2019-12-06 06:15 4.01 477 404 (2005) 27 (2006) 114 31 40 57 72 167 182 309
2019-12-06 05:15 4.02 481 404 (2005) 27 (2006) 114 31 40 57 72 167 182 309
2019-12-06 04:15 4.02 481 404 (2005) 27 (2006) 114 31 40 57 72 167 182 309
2019-12-06 03:15 4.03 485 404 (2005) 27 (2006) 114 31 40 57 72 167 182 309
2019-12-06 02:15 4.03 485 404 (2005) 27 (2006) 114 31 40 57 72 167 182 309
2019-12-06 01:15 4.03 485 404 (2005) 27 (2006) 114 31 40 57 72 167 182 309
2019-12-06 00:15 4.04 489 404 (2005) 27 (2006) 114 31 40 57 72 167 182 309

A total of 174 rows are displayed for years 2005 through 2018.

Trips for Little Sugar Creek (Missouri), Pineville (07188838)

DateStartEndDistanceConditionDischargeHeightFishingDetails

A total of 0 rows are displayed.

Condition Descriptions

Fishing Conditions

Fish Species

Notes

Classic Trip List

The classic River Trips application is still available for use. It is updated with the new system using a data retrofit. It is no longer maintained. The original River Trips application is no longer updated (as of 1 Dec 2016) but can be checked for errors or for the condition of the data before it was converted to the new system.